sensor_id;sensor_type;location;lat;lon;timestamp;pressure;altitude;pressure_sealevel;temperature;humidity
73240;BME280;61452;40.054;4.110;2023-05-24T00:03:30;101481.56;;;20.10;55.97
73240;BME280;61452;40.054;4.110;2023-05-24T00:08:35;101479.75;;;20.11;55.81
73240;BME280;61452;40.054;4.110;2023-05-24T00:13:38;101469.22;;;20.09;55.79
73240;BME280;61452;40.054;4.110;2023-05-24T00:18:40;101473.56;;;20.10;55.61
73240;BME280;61452;40.054;4.110;2023-05-24T00:23:42;101470.06;;;20.10;55.69
73240;BME280;61452;40.054;4.110;2023-05-24T00:28:44;101476.22;;;20.10;55.91
73240;BME280;61452;40.054;4.110;2023-05-24T00:33:46;101466.44;;;20.11;55.87
73240;BME280;61452;40.054;4.110;2023-05-24T00:38:49;101455.88;;;20.09;56.03
73240;BME280;61452;40.054;4.110;2023-05-24T00:43:51;101447.91;;;20.09;56.11
73240;BME280;61452;40.054;4.110;2023-05-24T00:48:54;101454.06;;;20.10;55.80
73240;BME280;61452;40.054;4.110;2023-05-24T00:53:56;101446.94;;;20.10;55.73
73240;BME280;61452;40.054;4.110;2023-05-24T00:58:59;101426.69;;;20.08;55.70
73240;BME280;61452;40.054;4.110;2023-05-24T01:04:02;101427.44;;;20.10;55.93
73240;BME280;61452;40.054;4.110;2023-05-24T01:20:12;101424.88;;;20.08;55.64
73240;BME280;61452;40.054;4.110;2023-05-24T01:30:42;101407.94;;;20.09;55.64
73240;BME280;61452;40.054;4.110;2023-05-24T01:35:45;101403.59;;;20.08;55.80
73240;BME280;61452;40.054;4.110;2023-05-24T01:40:49;101400.06;;;20.08;55.88
73240;BME280;61452;40.054;4.110;2023-05-24T01:46:28;101409.03;;;20.07;55.92
73240;BME280;61452;40.054;4.110;2023-05-24T01:51:58;101402.84;;;20.06;55.88
73240;BME280;61452;40.054;4.110;2023-05-24T01:57:06;101409.88;;;20.07;56.22
73240;BME280;61452;40.054;4.110;2023-05-24T02:02:10;101406.25;;;20.08;56.01
73240;BME280;61452;40.054;4.110;2023-05-24T02:07:14;101409.88;;;20.07;55.95
73240;BME280;61452;40.054;4.110;2023-05-24T02:12:17;101403.59;;;20.08;55.85
73240;BME280;61452;40.054;4.110;2023-05-24T02:17:19;101399.31;;;20.06;55.78
73240;BME280;61452;40.054;4.110;2023-05-24T02:22:21;101388.56;;;20.07;55.91
73240;BME280;61452;40.054;4.110;2023-05-24T02:27:26;101387.72;;;20.07;55.85
73240;BME280;61452;40.054;4.110;2023-05-24T02:32:28;101380.84;;;20.04;55.80
73240;BME280;61452;40.054;4.110;2023-05-24T02:37:30;101392.06;;;20.08;56.13
73240;BME280;61452;40.054;4.110;2023-05-24T02:42:32;101395.69;;;20.07;56.05
73240;BME280;61452;40.054;4.110;2023-05-24T02:47:34;101391.22;;;20.07;55.88
73240;BME280;61452;40.054;4.110;2023-05-24T02:52:36;101386.88;;;20.06;55.80
73240;BME280;61452;40.054;4.110;2023-05-24T02:57:39;101392.34;;;20.05;56.00
73240;BME280;61452;40.054;4.110;2023-05-24T03:02:42;101387.84;;;20.05;55.91
73240;BME280;61452;40.054;4.110;2023-05-24T03:07:45;101381.69;;;20.05;55.77
73240;BME280;61452;40.054;4.110;2023-05-24T03:12:49;101389.66;;;20.05;55.86
73240;BME280;61452;40.054;4.110;2023-05-24T03:17:51;101379.97;;;20.04;55.92
73240;BME280;61452;40.054;4.110;2023-05-24T03:22:53;101382.66;;;20.04;55.93
73240;BME280;61452;40.054;4.110;2023-05-24T03:27:55;101385.19;;;20.05;55.95
73240;BME280;61452;40.054;4.110;2023-05-24T03:32:57;101379.25;;;20.02;55.91
73240;BME280;61452;40.054;4.110;2023-05-24T03:38:00;101372.94;;;20.03;55.95
73240;BME280;61452;40.054;4.110;2023-05-24T03:43:04;101374.53;;;20.05;55.86
73240;BME280;61452;40.054;4.110;2023-05-24T03:48:20;101376.47;;;20.03;55.86
73240;BME280;61452;40.054;4.110;2023-05-24T03:53:24;101368.47;;;20.03;56.06
73240;BME280;61452;40.054;4.110;2023-05-24T03:58:27;101364.13;;;20.02;55.69
73240;BME280;61452;40.054;4.110;2023-05-24T04:03:29;101369.44;;;20.02;55.75
73240;BME280;61452;40.054;4.110;2023-05-24T04:08:35;101373.06;;;20.01;55.80
73240;BME280;61452;40.054;4.110;2023-05-24T04:13:37;101374.78;;;20.02;55.84
73240;BME280;61452;40.054;4.110;2023-05-24T04:18:39;101368.59;;;20.02;56.11
73240;BME280;61452;40.054;4.110;2023-05-24T04:23:41;101354.91;;;19.95;56.01
73240;BME280;61452;40.054;4.110;2023-05-24T04:28:43;101364.22;;;20.01;56.07
73240;BME280;61452;40.054;4.110;2023-05-24T04:33:49;101363.25;;;20.02;56.10
73240;BME280;61452;40.054;4.110;2023-05-24T04:38:51;101367.84;;;20.00;55.82
73240;BME280;61452;40.054;4.110;2023-05-24T04:43:57;101363.38;;;20.00;55.72
73240;BME280;61452;40.054;4.110;2023-05-24T04:49:02;101359.03;;;19.99;55.76
73240;BME280;61452;40.054;4.110;2023-05-24T04:54:06;101357.19;;;20.00;55.79
73240;BME280;61452;40.054;4.110;2023-05-24T04:59:11;101349.22;;;20.00;55.67
73240;BME280;61452;40.054;4.110;2023-05-24T05:04:13;101346.44;;;20.01;55.86
73240;BME280;61452;40.054;4.110;2023-05-24T05:09:15;101344.75;;;20.00;55.93
73240;BME280;61452;40.054;4.110;2023-05-24T05:14:18;101349.22;;;20.00;56.01
73240;BME280;61452;40.054;4.110;2023-05-24T05:19:20;101341.22;;;20.00;56.12
73240;BME280;61452;40.054;4.110;2023-05-24T05:24:22;101339.56;;;19.99;55.98
73240;BME280;61452;40.054;4.110;2023-05-24T05:29:24;101345.72;;;19.99;56.01
73240;BME280;61452;40.054;4.110;2023-05-24T05:34:26;101337.75;;;19.99;55.89
73240;BME280;61452;40.054;4.110;2023-05-24T05:39:29;101352.03;;;19.98;55.96
73240;BME280;61452;40.054;4.110;2023-05-24T05:44:32;101349.47;;;19.97;55.88
73240;BME280;61452;40.054;4.110;2023-05-24T05:49:34;101369.69;;;19.99;55.96
73240;BME280;61452;40.054;4.110;2023-05-24T05:54:37;101370.66;;;19.98;56.25
73240;BME280;61452;40.054;4.110;2023-05-24T05:59:39;101379.50;;;19.99;56.00
73240;BME280;61452;40.054;4.110;2023-05-24T06:04:41;101369.81;;;19.98;55.97
73240;BME280;61452;40.054;4.110;2023-05-24T06:09:43;101369.69;;;19.99;56.02
73240;BME280;61452;40.054;4.110;2023-05-24T06:14:45;101363.63;;;19.97;55.82
73240;BME280;61452;40.054;4.110;2023-05-24T06:19:51;101365.34;;;19.98;55.97
73240;BME280;61452;40.054;4.110;2023-05-24T06:24:54;101370.66;;;19.98;56.10
73240;BME280;61452;40.054;4.110;2023-05-24T06:29:56;101375.03;;;19.99;56.12
73240;BME280;61452;40.054;4.110;2023-05-24T06:34:58;101374.19;;;19.99;56.10
73240;BME280;61452;40.054;4.110;2023-05-24T06:40:01;101384.81;;;19.99;56.19
73240;BME280;61452;40.054;4.110;2023-05-24T06:45:03;101383.97;;;19.98;56.20
73240;BME280;61452;40.054;4.110;2023-05-24T06:50:06;101375.13;;;19.98;56.34
73240;BME280;61452;40.054;4.110;2023-05-24T06:55:09;101364.13;;;19.91;56.43
73240;BME280;61452;40.054;4.110;2023-05-24T07:00:12;101376.94;;;19.97;56.35
73240;BME280;61452;40.054;4.110;2023-05-24T07:05:14;101379.50;;;19.99;56.25
73240;BME280;61452;40.054;4.110;2023-05-24T07:10:16;101381.31;;;19.98;56.51
73240;BME280;61452;40.054;4.110;2023-05-24T07:15:18;101385.78;;;19.98;56.43
73240;BME280;61452;40.054;4.110;2023-05-24T07:20:21;101393.66;;;19.99;56.38
73240;BME280;61452;40.054;4.110;2023-05-24T07:25:23;101395.47;;;19.99;56.37
73240;BME280;61452;40.054;4.110;2023-05-24T07:30:25;101413.28;;;19.98;56.34
73240;BME280;61452;40.054;4.110;2023-05-24T07:35:35;101415.94;;;19.98;56.69
73240;BME280;61452;40.054;4.110;2023-05-24T07:40:37;101408.41;;;19.92;56.43
73240;BME280;61452;40.054;4.110;2023-05-24T07:45:40;101417.63;;;19.99;56.70
73240;BME280;61452;40.054;4.110;2023-05-24T07:50:43;101417.75;;;19.98;56.64
73240;BME280;61452;40.054;4.110;2023-05-24T07:55:49;101410.47;;;20.00;56.36
73240;BME280;61452;40.054;4.110;2023-05-24T08:00:52;101418.44;;;20.00;56.62
73240;BME280;61452;40.054;4.110;2023-05-24T08:05:55;101419.66;;;19.96;56.45
73240;BME280;61452;40.054;4.110;2023-05-24T08:10:57;101420.41;;;19.98;56.31
73240;BME280;61452;40.054;4.110;2023-05-24T08:15:59;101419.44;;;19.99;56.45
73240;BME280;61452;40.054;4.110;2023-05-24T08:21:02;101413.28;;;19.98;56.34
73240;BME280;61452;40.054;4.110;2023-05-24T08:26:04;101414.97;;;19.99;56.54
73240;BME280;61452;40.054;4.110;2023-05-24T08:31:08;101420.28;;;19.99;56.56
73240;BME280;61452;40.054;4.110;2023-05-24T08:36:11;101414.13;;;19.99;56.41
73240;BME280;61452;40.054;4.110;2023-05-24T08:41:13;101416.78;;;19.99;56.40
73240;BME280;61452;40.054;4.110;2023-05-24T08:46:16;101422.97;;;19.99;56.53
73240;BME280;61452;40.054;4.110;2023-05-24T08:51:18;101435.28;;;20.00;56.38
73240;BME280;61452;40.054;4.110;2023-05-24T08:56:21;101438.09;;;19.99;56.29
73240;BME280;61452;40.054;4.110;2023-05-24T09:01:24;101449.59;;;19.99;56.35
73240;BME280;61452;40.054;4.110;2023-05-24T09:06:29;101449.59;;;19.99;56.14
73240;BME280;61452;40.054;4.110;2023-05-24T09:11:32;101456.59;;;20.00;56.29
73240;BME280;61452;40.054;4.110;2023-05-24T09:16:39;101450.28;;;20.01;56.45
73240;BME280;61452;40.054;4.110;2023-05-24T09:21:42;101455.63;;;20.01;56.40
73240;BME280;61452;40.054;4.110;2023-05-24T09:26:48;101440.13;;;19.95;56.35
73240;BME280;61452;40.054;4.110;2023-05-24T09:31:54;101457.31;;;20.02;56.39
73240;BME280;61452;40.054;4.110;2023-05-24T09:36:57;101452.00;;;20.02;56.51
73240;BME280;61452;40.054;4.110;2023-05-24T09:42:01;101461.81;;;20.02;56.38
73240;BME280;61452;40.054;4.110;2023-05-24T09:47:03;101459.03;;;20.03;56.40
73240;BME280;61452;40.054;4.110;2023-05-24T09:52:06;101460.00;;;20.02;56.52
73240;BME280;61452;40.054;4.110;2023-05-24T09:57:08;101462.66;;;20.02;56.57
73240;BME280;61452;40.054;4.110;2023-05-24T10:02:11;101460.84;;;20.03;56.56
73240;BME280;61452;40.054;4.110;2023-05-24T10:07:14;101460.00;;;20.02;56.69
73240;BME280;61452;40.054;4.110;2023-05-24T10:12:17;101467.00;;;20.03;56.69
73240;BME280;61452;40.054;4.110;2023-05-24T10:17:23;101466.06;;;20.04;56.90
73240;BME280;61452;40.054;4.110;2023-05-24T10:22:29;101465.19;;;20.04;56.87
73240;BME280;61452;40.054;4.110;2023-05-24T10:27:33;101470.53;;;20.04;56.59
73240;BME280;61452;40.054;4.110;2023-05-24T10:32:37;101471.25;;;20.06;56.50
73240;BME280;61452;40.054;4.110;2023-05-24T10:37:40;101477.41;;;20.06;56.74
73240;BME280;61452;40.054;4.110;2023-05-24T10:42:43;101470.63;;;20.02;56.63
73240;BME280;61452;40.054;4.110;2023-05-24T10:47:46;101472.09;;;20.06;56.62
73240;BME280;61452;40.054;4.110;2023-05-24T10:52:48;101472.94;;;20.07;56.82
73240;BME280;61452;40.054;4.110;2023-05-24T10:57:50;101461.44;;;20.06;56.72
73240;BME280;61452;40.054;4.110;2023-05-24T11:03:00;101459.78;;;20.05;56.83
73240;BME280;61452;40.054;4.110;2023-05-24T11:08:05;101459.63;;;20.07;56.75
73240;BME280;61452;40.054;4.110;2023-05-24T11:13:07;101471.88;;;20.09;56.73
73240;BME280;61452;40.054;4.110;2023-05-24T11:23:15;101458.56;;;20.09;56.73
73240;BME280;61452;40.054;4.110;2023-05-24T11:28:18;101446.19;;;20.08;56.78
73240;BME280;61452;40.054;4.110;2023-05-24T11:33:21;101447.91;;;20.09;56.64
73240;BME280;61452;40.054;4.110;2023-05-24T11:38:24;101439.91;;;20.09;56.83
73240;BME280;61452;40.054;4.110;2023-05-24T11:43:29;101441.59;;;20.10;56.77
73240;BME280;61452;40.054;4.110;2023-05-24T11:48:32;101444.38;;;20.09;56.68
73240;BME280;61452;40.054;4.110;2023-05-24T11:53:34;101446.09;;;20.10;56.72
73240;BME280;61452;40.054;4.110;2023-05-24T11:58:43;101449.72;;;20.09;57.08
73240;BME280;61452;40.054;4.110;2023-05-24T12:03:50;101452.16;;;20.12;56.74
73240;BME280;61452;40.054;4.110;2023-05-24T12:08:52;101455.63;;;20.12;56.57
73240;BME280;61452;40.054;4.110;2023-05-24T12:13:56;101452.16;;;20.12;56.55
73240;BME280;61452;40.054;4.110;2023-05-24T12:19:00;101458.28;;;20.12;56.69
73240;BME280;61452;40.054;4.110;2023-05-24T12:24:16;101457.34;;;20.13;56.76
73240;BME280;61452;40.054;4.110;2023-05-24T12:29:21;101458.28;;;20.12;56.85
73240;BME280;61452;40.054;4.110;2023-05-24T12:34:23;101449.34;;;20.13;56.72
73240;BME280;61452;40.054;4.110;2023-05-24T12:39:27;101445.81;;;20.13;56.85
73240;BME280;61452;40.054;4.110;2023-05-24T12:44:36;101440.66;;;20.11;56.45
73240;BME280;61452;40.054;4.110;2023-05-24T12:49:39;101436.16;;;20.12;56.74
73240;BME280;61452;40.054;4.110;2023-05-24T12:54:41;101428.19;;;20.12;56.67
73240;BME280;61452;40.054;4.110;2023-05-24T12:59:43;101434.22;;;20.14;56.78
73240;BME280;61452;40.054;4.110;2023-05-24T13:04:45;101417.84;;;20.07;57.07
73240;BME280;61452;40.054;4.110;2023-05-24T13:09:48;101424.41;;;20.14;57.08
73240;BME280;61452;40.054;4.110;2023-05-24T13:14:50;101430.59;;;20.15;56.89
73240;BME280;61452;40.054;4.110;2023-05-24T13:19:53;101426.09;;;20.15;56.98
73240;BME280;61452;40.054;4.110;2023-05-24T13:24:56;101426.00;;;20.17;57.10
73240;BME280;61452;40.054;4.110;2023-05-24T13:29:58;101426.09;;;20.15;57.13
73240;BME280;61452;40.054;4.110;2023-05-24T13:35:02;101417.16;;;20.16;56.82
73240;BME280;61452;40.054;4.110;2023-05-24T13:40:09;101410.00;;;20.17;56.87
73240;BME280;61452;40.054;4.110;2023-05-24T13:45:11;101403.84;;;20.16;56.80
73240;BME280;61452;40.054;4.110;2023-05-24T13:50:13;101395.72;;;20.18;56.93
73240;BME280;61452;40.054;4.110;2023-05-24T13:55:16;101406.25;;;20.19;56.95
73240;BME280;61452;40.054;4.110;2023-05-24T14:00:19;101406.25;;;20.19;56.93
73240;BME280;61452;40.054;4.110;2023-05-24T14:05:22;101396.56;;;20.18;56.81
73240;BME280;61452;40.054;4.110;2023-05-24T14:10:28;101398.25;;;20.19;56.92
73240;BME280;61452;40.054;4.110;2023-05-24T14:15:31;101396.44;;;20.20;56.88
73240;BME280;61452;40.054;4.110;2023-05-24T14:20:34;101388.44;;;20.20;57.03
73240;BME280;61452;40.054;4.110;2023-05-24T14:25:41;101381.31;;;20.20;56.80
73240;BME280;61452;40.054;4.110;2023-05-24T14:30:43;101384.94;;;20.19;56.94
73240;BME280;61452;40.054;4.110;2023-05-24T14:35:45;101388.31;;;20.22;56.88
73240;BME280;61452;40.054;4.110;2023-05-24T14:40:47;101382.03;;;20.23;56.95
73240;BME280;61452;40.054;4.110;2023-05-24T14:45:50;101380.34;;;20.22;56.98
73240;BME280;61452;40.054;4.110;2023-05-24T14:50:52;101376.81;;;20.21;56.75
73240;BME280;61452;40.054;4.110;2023-05-24T14:55:54;101363.03;;;20.16;56.79
73240;BME280;61452;40.054;4.110;2023-05-24T15:00:56;101369.56;;;20.23;56.70
73240;BME280;61452;40.054;4.110;2023-05-24T15:05:59;101364.25;;;20.23;56.78
73240;BME280;61452;40.054;4.110;2023-05-24T15:11:01;101360.63;;;20.24;56.75
73240;BME280;61452;40.054;4.110;2023-05-24T15:16:03;101363.13;;;20.26;56.56
73240;BME280;61452;40.054;4.110;2023-05-24T15:21:05;101359.63;;;20.25;56.78
73240;BME280;61452;40.054;4.110;2023-05-24T15:26:07;101356.00;;;20.26;56.72
73240;BME280;61452;40.054;4.110;2023-05-24T15:31:09;101355.13;;;20.26;56.38
73240;BME280;61452;40.054;4.110;2023-05-24T15:36:11;101346.28;;;20.25;56.44
73240;BME280;61452;40.054;4.110;2023-05-24T15:41:16;101340.75;;;20.28;56.43
73240;BME280;61452;40.054;4.110;2023-05-24T15:46:21;101349.81;;;20.26;56.48
73240;BME280;61452;40.054;4.110;2023-05-24T15:51:23;101346.91;;;20.29;56.51
73240;BME280;61452;40.054;4.110;2023-05-24T15:56:45;101337.22;;;20.28;56.33
73240;BME280;61452;40.054;4.110;2023-05-24T16:01:47;101336.38;;;20.27;56.38
73240;BME280;61452;40.054;4.110;2023-05-24T16:06:49;101323.66;;;20.19;56.68
73240;BME280;61452;40.054;4.110;2023-05-24T16:11:51;101332.75;;;20.28;56.60
73240;BME280;61452;40.054;4.110;2023-05-24T16:16:54;101336.25;;;20.29;56.64
73240;BME280;61452;40.054;4.110;2023-05-24T16:21:59;101335.41;;;20.28;56.62
73240;BME280;61452;40.054;4.110;2023-05-24T16:27:01;101328.25;;;20.29;56.66
73240;BME280;61452;40.054;4.110;2023-05-24T16:32:04;101329.22;;;20.28;56.56
73240;BME280;61452;40.054;4.110;2023-05-24T16:37:06;101334.28;;;20.31;56.52
73240;BME280;61452;40.054;4.110;2023-05-24T16:42:08;101336.13;;;20.30;56.73
73240;BME280;61452;40.054;4.110;2023-05-24T16:47:10;101339.53;;;20.32;56.67
73240;BME280;61452;40.054;4.110;2023-05-24T16:52:12;101334.09;;;20.34;56.54
73240;BME280;61452;40.054;4.110;2023-05-24T16:57:15;101331.44;;;20.34;56.69
73240;BME280;61452;40.054;4.110;2023-05-24T17:02:17;101339.53;;;20.32;56.61
73240;BME280;61452;40.054;4.110;2023-05-24T17:07:19;101347.41;;;20.34;56.57
73240;BME280;61452;40.054;4.110;2023-05-24T17:12:21;101340.28;;;20.34;56.59
73240;BME280;61452;40.054;4.110;2023-05-24T17:17:23;101334.94;;;20.34;56.38
73240;BME280;61452;40.054;4.110;2023-05-24T17:22:25;101350.56;;;20.39;56.51
73240;BME280;61452;40.054;4.110;2023-05-24T17:27:27;101337.81;;;20.31;56.51
73240;BME280;61452;40.054;4.110;2023-05-24T17:32:29;101358.81;;;20.36;56.46
73240;BME280;61452;40.054;4.110;2023-05-24T17:37:33;101360.25;;;20.40;56.62
73240;BME280;61452;40.054;4.110;2023-05-24T17:42:35;101361.59;;;20.34;56.57
73240;BME280;61452;40.054;4.110;2023-05-24T17:47:37;101373.56;;;20.40;56.37
73240;BME280;61452;40.054;4.110;2023-05-24T17:52:39;101368.97;;;20.42;56.64
73240;BME280;61452;40.054;4.110;2023-05-24T17:57:41;101368.81;;;20.43;56.50
73240;BME280;61452;40.054;4.110;2023-05-24T18:02:43;101371.38;;;20.45;56.43
73240;BME280;61452;40.054;4.110;2023-05-24T18:07:45;101369.81;;;20.42;56.40
73240;BME280;61452;40.054;4.110;2023-05-24T18:12:47;101376.72;;;20.45;56.54
73240;BME280;61452;40.054;4.110;2023-05-24T18:17:49;101372.09;;;20.47;56.44
73240;BME280;61452;40.054;4.110;2023-05-24T18:22:52;101372.09;;;20.47;56.49
73240;BME280;61452;40.054;4.110;2023-05-24T18:27:54;101385.66;;;20.44;56.70
73240;BME280;61452;40.054;4.110;2023-05-24T18:32:56;101387.38;;;20.45;56.59
73240;BME280;61452;40.054;4.110;2023-05-24T18:38:08;101387.25;;;20.46;56.51
73240;BME280;61452;40.054;4.110;2023-05-24T18:43:10;101396.94;;;20.47;56.72
73240;BME280;61452;40.054;4.110;2023-05-24T18:48:13;101390.03;;;20.45;56.69
73240;BME280;61452;40.054;4.110;2023-05-24T18:53:15;101395.13;;;20.48;56.73
73240;BME280;61452;40.054;4.110;2023-05-24T18:58:17;101395.97;;;20.48;56.66
73240;BME280;61452;40.054;4.110;2023-05-24T19:03:19;101400.69;;;20.45;56.59
73240;BME280;61452;40.054;4.110;2023-05-24T19:08:23;101402.38;;;20.46;56.51
73240;BME280;61452;40.054;4.110;2023-05-24T19:13:25;101408.31;;;20.49;56.56
73240;BME280;61452;40.054;4.110;2023-05-24T19:18:28;101403.97;;;20.48;56.47
73240;BME280;61452;40.054;4.110;2023-05-24T19:23:30;101404.31;;;20.44;56.68
73240;BME280;61452;40.054;4.110;2023-05-24T19:28:32;101411.25;;;20.46;56.74
73240;BME280;61452;40.054;4.110;2023-05-24T19:33:38;101408.81;;;20.43;56.55
73240;BME280;61452;40.054;4.110;2023-05-24T19:39:00;101406.75;;;20.47;56.45
73240;BME280;61452;40.054;4.110;2023-05-24T19:44:02;101411.13;;;20.48;56.41
73240;BME280;61452;40.054;4.110;2023-05-24T19:49:04;101421.03;;;20.46;56.77
73240;BME280;61452;40.054;4.110;2023-05-24T19:54:06;101427.13;;;20.48;56.55
73240;BME280;61452;40.054;4.110;2023-05-24T19:59:11;101427.81;;;20.50;56.48
73240;BME280;61452;40.054;4.110;2023-05-24T20:04:14;101433.16;;;20.50;56.35
73240;BME280;61452;40.054;4.110;2023-05-24T20:09:16;101436.19;;;20.45;56.50
73240;BME280;61452;40.054;4.110;2023-05-24T20:14:19;101441.63;;;20.44;56.49
73240;BME280;61452;40.054;4.110;2023-05-24T20:19:22;101441.63;;;20.44;56.56
73240;BME280;61452;40.054;4.110;2023-05-24T20:24:24;101450.38;;;20.46;56.44
73240;BME280;61452;40.054;4.110;2023-05-24T20:29:26;101457.13;;;20.50;56.38
73240;BME280;61452;40.054;4.110;2023-05-24T20:34:28;101460.91;;;20.47;56.27
73240;BME280;61452;40.054;4.110;2023-05-24T20:39:30;101458.47;;;20.44;56.29
73240;BME280;61452;40.054;4.110;2023-05-24T20:44:32;101460.28;;;20.44;56.34
73240;BME280;61452;40.054;4.110;2023-05-24T20:49:34;101469.03;;;20.46;56.41
73240;BME280;61452;40.054;4.110;2023-05-24T20:54:36;101465.97;;;20.50;56.16
73240;BME280;61452;40.054;4.110;2023-05-24T20:59:39;101466.84;;;20.51;56.26
73240;BME280;61452;40.054;4.110;2023-05-24T21:04:41;101459.22;;;20.46;56.28
73240;BME280;61452;40.054;4.110;2023-05-24T21:09:43;101467.09;;;20.48;56.14
73240;BME280;61452;40.054;4.110;2023-05-24T21:14:45;101470.47;;;20.50;56.12
73240;BME280;61452;40.054;4.110;2023-05-24T21:19:47;101472.28;;;20.49;56.26
73240;BME280;61452;40.054;4.110;2023-05-24T21:24:49;101471.69;;;20.46;56.27
73240;BME280;61452;40.054;4.110;2023-05-24T21:29:51;101470.25;;;20.42;56.40
73240;BME280;61452;40.054;4.110;2023-05-24T21:34:53;101471.78;;;20.44;56.38
73240;BME280;61452;40.054;4.110;2023-05-24T21:39:55;101476.78;;;20.49;56.28
73240;BME280;61452;40.054;4.110;2023-05-24T21:44:57;101482.81;;;20.51;56.31
73240;BME280;61452;40.054;4.110;2023-05-24T21:49:59;101483.31;;;20.45;56.28
73240;BME280;61452;40.054;4.110;2023-05-24T21:55:01;101489.25;;;20.48;56.32
73240;BME280;61452;40.054;4.110;2023-05-24T22:00:04;101496.88;;;20.53;56.16
73240;BME280;61452;40.054;4.110;2023-05-24T22:05:06;101500.50;;;20.52;56.03
73240;BME280;61452;40.054;4.110;2023-05-24T22:10:09;101508.03;;;20.47;56.14
73240;BME280;61452;40.054;4.110;2023-05-24T22:15:12;101508.88;;;20.47;56.15
73240;BME280;61452;40.054;4.110;2023-05-24T22:20:14;101513.84;;;20.52;56.26
73240;BME280;61452;40.054;4.110;2023-05-24T22:25:16;101517.72;;;20.48;56.39
73240;BME280;61452;40.054;4.110;2023-05-24T22:30:20;101517.84;;;20.46;56.27
73240;BME280;61452;40.054;4.110;2023-05-24T22:35:22;101511.44;;;20.49;56.34
73240;BME280;61452;40.054;4.110;2023-05-24T22:40:24;101516.75;;;20.49;56.23
73240;BME280;61452;40.054;4.110;2023-05-24T22:45:26;101521.34;;;20.47;56.38
73240;BME280;61452;40.054;4.110;2023-05-24T22:50:28;101527.53;;;20.47;56.33
73240;BME280;61452;40.054;4.110;2023-05-24T22:55:30;101523.28;;;20.45;56.35
73240;BME280;61452;40.054;4.110;2023-05-24T23:00:32;101517.72;;;20.48;56.25
73240;BME280;61452;40.054;4.110;2023-05-24T23:05:34;101511.44;;;20.49;56.42
73240;BME280;61452;40.054;4.110;2023-05-24T23:10:39;101512.41;;;20.48;56.21
73240;BME280;61452;40.054;4.110;2023-05-24T23:15:47;101505.38;;;20.47;56.26
73240;BME280;61452;40.054;4.110;2023-05-24T23:20:49;101511.28;;;20.50;56.33
73240;BME280;61452;40.054;4.110;2023-05-24T23:25:54;101510.44;;;20.50;56.13
73240;BME280;61452;40.054;4.110;2023-05-24T23:30:57;101505.38;;;20.47;56.45
73240;BME280;61452;40.054;4.110;2023-05-24T23:35:59;101501.72;;;20.48;56.48
73240;BME280;61452;40.054;4.110;2023-05-24T23:41:01;101499.06;;;20.48;56.29
73240;BME280;61452;40.054;4.110;2023-05-24T23:46:03;101494.44;;;20.50;56.30
73240;BME280;61452;40.054;4.110;2023-05-24T23:51:05;101481.97;;;20.39;56.39
73240;BME280;61452;40.054;4.110;2023-05-24T23:56:08;101489.25;;;20.48;56.41
